createdAt,value
2022-10-05T00:09:23.676Z,10.8
2022-10-05T00:19:25.771Z,10.9
2022-10-05T00:29:27.516Z,11
2022-10-05T00:39:29.813Z,11.2
2022-10-05T00:49:32.262Z,11.5
2022-10-05T00:59:34.235Z,11.5
2022-10-05T01:09:35.959Z,11.5
2022-10-05T01:19:38.245Z,11.4
2022-10-05T01:29:40.480Z,11.4
2022-10-05T01:39:42.722Z,11.5
2022-10-05T01:49:45.159Z,11.5
2022-10-05T01:59:47.386Z,11.7
2022-10-05T02:09:49.730Z,11.9
2022-10-05T02:19:51.915Z,12
2022-10-05T02:29:54.292Z,12
2022-10-05T02:39:56.535Z,11.9
2022-10-05T02:49:58.982Z,11.9
2022-10-05T03:10:03.395Z,12.1
2022-10-05T03:20:05.400Z,12.2
2022-10-05T03:30:07.517Z,12.2
2022-10-05T03:40:10.077Z,12.1
2022-10-05T03:50:12.475Z,12
2022-10-05T04:00:15.037Z,12.1
2022-10-05T04:10:17.706Z,12
2022-10-05T04:20:19.657Z,11.9
2022-10-05T04:40:23.556Z,12
2022-10-05T04:50:26.291Z,12.1
2022-10-05T05:00:28.510Z,12.3
2022-10-05T05:10:30.410Z,12.5
2022-10-05T05:13:24.898Z,12.5
2022-10-05T05:20:42.045Z,12.7
2022-10-05T06:00:52.378Z,13.1
2022-10-05T06:10:54.450Z,13.1
2022-10-05T06:20:56.386Z,13.2
2022-10-05T06:30:58.216Z,13.3
2022-10-05T06:40:59.879Z,13.5
2022-10-05T07:01:04.178Z,13.9
2022-10-05T07:11:06.520Z,14
2022-10-05T07:21:08.410Z,14.2
2022-10-05T07:31:10.682Z,14.4
2022-10-05T07:41:12.542Z,14.5
2022-10-05T07:51:14.619Z,14.5
2022-10-05T08:01:17.122Z,14.6
2022-10-05T08:11:19.770Z,14.7
2022-10-05T08:21:21.670Z,14.9
2022-10-05T08:31:23.879Z,15
2022-10-05T08:41:25.654Z,15.1
2022-10-05T08:51:27.528Z,15.3
2022-10-05T09:11:31.202Z,15.6
2022-10-05T09:21:33.494Z,15.8
2022-10-05T09:31:35.469Z,16
2022-10-05T09:41:37.253Z,16.1
2022-10-05T09:51:39.349Z,16.3
2022-10-05T10:01:41.067Z,16.4
2022-10-05T10:11:43.836Z,16.5
2022-10-05T10:21:46.067Z,16.8
2022-10-05T10:31:47.674Z,16.8
2022-10-05T10:41:49.423Z,16.8
2022-10-05T10:51:51.618Z,16.9
2022-10-05T11:01:53.868Z,17
2022-10-05T11:11:55.657Z,17.1
2022-10-05T11:21:57.855Z,17.1
2022-10-05T11:31:59.785Z,17.3
2022-10-05T11:42:01.474Z,17.4
2022-10-05T12:02:06.151Z,18
2022-10-05T12:12:08.011Z,18.1
2022-10-05T12:22:09.796Z,18.5
2022-10-05T12:32:11.544Z,18.4
2022-10-05T12:42:13.572Z,18.7
2022-10-05T12:52:15.889Z,18.9
2022-10-05T13:02:18.100Z,19.2
2022-10-05T13:12:20.652Z,19.3
2022-10-05T13:22:22.747Z,19.6
2022-10-05T13:32:25.182Z,19.6
2022-10-05T13:42:27.196Z,19.8
2022-10-05T13:52:29.919Z,20.1
2022-10-05T14:02:32.126Z,20.2
2022-10-05T14:12:33.928Z,20.5
2022-10-05T14:22:36.262Z,20.5
2022-10-05T14:32:38.871Z,20.6
2022-10-05T14:52:45.594Z,20.4
2022-10-05T15:02:46.184Z,20.4
2022-10-05T15:12:48.367Z,20.2
2022-10-05T15:22:50.893Z,20
2022-10-05T15:32:52.755Z,19.9
2022-10-05T15:42:55.188Z,19.8
2022-10-05T15:52:56.978Z,19.6
2022-10-05T16:02:59.040Z,19.4
2022-10-05T16:13:00.898Z,19.3
2022-10-05T16:23:03.047Z,19.2
2022-10-05T16:33:05.672Z,19
2022-10-05T16:43:08.230Z,18.8
2022-10-05T16:53:10.534Z,18.7
2022-10-05T17:03:12.789Z,18.6
2022-10-05T17:13:15.007Z,19.2
2022-10-05T17:23:17.576Z,19
2022-10-05T17:43:22.025Z,18.3
2022-10-05T17:53:23.775Z,18.2
2022-10-05T18:03:26.142Z,18
2022-10-05T18:13:27.827Z,17.9
2022-10-05T18:23:29.580Z,17.8
2022-10-05T18:33:32.257Z,17.8
2022-10-05T18:43:33.909Z,17.8
2022-10-05T18:53:35.899Z,17.8
2022-10-05T19:03:37.959Z,17.7
2022-10-05T19:13:40.580Z,17.8
2022-10-05T19:23:43.065Z,17.8
2022-10-05T19:33:44.934Z,17.8
2022-10-05T19:43:47.140Z,17.8
2022-10-05T19:53:48.988Z,17.9
2022-10-05T20:03:51.078Z,17.9
2022-10-05T20:13:53.070Z,18
2022-10-05T20:23:55.564Z,17.9
2022-10-05T20:33:58.082Z,17.9
2022-10-05T20:44:00.347Z,17.9
2022-10-05T20:54:02.619Z,18
2022-10-05T21:04:04.896Z,18
2022-10-05T21:14:06.640Z,18
2022-10-05T21:24:08.778Z,18
2022-10-05T21:44:13.347Z,18
2022-10-05T21:54:15.808Z,17.8
2022-10-05T22:04:17.753Z,17.8
2022-10-05T22:14:19.907Z,17.8
2022-10-05T22:24:21.878Z,17.6
2022-10-05T22:34:23.779Z,17.2
2022-10-05T22:44:25.634Z,16.9
2022-10-05T22:54:29.702Z,16.6
2022-10-05T23:04:30.371Z,16.5
2022-10-05T23:14:32.681Z,15.9
2022-10-05T23:24:35.075Z,13.9
2022-10-05T23:34:37.563Z,13.5
2022-10-05T23:44:39.388Z,13.4
2022-10-05T23:54:41.619Z,13.5
